LZKZ

Details ICAO LZKZ (KSC)
Name KOSICE
Region Slovakia
Timezone Europe/Bratislava (UTC+1.0)
Plans Departing 168
Arriving 163
Stats Elevation 755 ft / 230 m (AMSL)
Location 48.663030° 21.241155°
Runways 1
Magnetic Variation 5.332° E
Sunrise 2017-12-17 06:23:51 UTC / 2017-12-17 07:23:51 Local
Sunset 2017-12-17 14:41:08 UTC / 2017-12-17 15:41:08 Local
Advertisement - Login to hide

Runways

ID Width Length Bearing (true) Bearing (mag) Surface Threshold Offset Overrun Length
01 148 ft / 45 m 10,174 ft / 3,101 m 13.00° 7.67° Asphalt 0 ft / 0 m 0 ft / 0 m
19 148 ft / 45 m 10,174 ft / 3,101 m 193.00° 187.67° Asphalt 0 ft / 0 m 0 ft / 0 m

Approach Navaids

Runway Type Ident Frequency Range Bearing (true) Bearing (mag) Slope Elevation
01 Localiser KE 109.50 MHz 18 nm / 33 km 13.00° 7.67° - 739 ft / 225 m (AMSL)
01 Glidescope KE 109.50 MHz 10 nm / 19 km 13.00° 7.67° 3.00° 739 ft / 225 m (AMSL)

Map

Weather


0- 5 10 15 20 25 30 35+ Temperature / ° C

Clouds and Precipitation
Forecast for 2017-12-17 06:00 UTC. Updated an hour ago

Ground ~20,000 ft ~40,000 ft Winds

METAR

LZKZ 170400Z VRB01KT 9999 FEW045 BKN060 M01/M02 Q1015

TAF

Not found

Frequencies

Tower 133.75 MHz TWR
Approach 129.58 MHz APP
Approach 119.85 MHz APP
Tower 120.40 MHz TWR
Approach 129.57 MHz APP
Approach 133.75 MHz APP
Warning: Do not use this data for real-world aviation or navigation. No guarantee of current accuracy is given.